createdAt,value
2023-02-27T10:21:15.780Z,500.00
2023-02-27T10:23:16.732Z,500.00
2023-02-27T10:24:16.730Z,500.00
2023-02-27T10:25:30.363Z,500.00
2023-02-27T10:26:16.763Z,500.00
2023-02-27T10:27:16.782Z,500.00
2023-02-27T10:29:16.785Z,500.00
2023-02-27T10:31:16.702Z,400.00
2023-02-27T10:32:16.691Z,400.00
2023-02-27T10:33:17.027Z,400.00
2023-02-27T10:35:16.625Z,400.00
2023-02-27T10:36:30.910Z,400.00
2023-02-27T10:37:16.643Z,400.00
2023-02-27T10:38:17.920Z,400.00
2023-02-27T10:39:17.103Z,400.00
2023-02-27T10:40:16.582Z,400.00
2023-02-27T10:43:16.554Z,400.00
2023-02-27T10:44:19.764Z,400.00
2023-02-27T10:45:17.578Z,400.00
2023-02-27T10:46:16.626Z,400.00
2023-02-27T10:47:16.790Z,400.00
2023-02-27T10:48:16.504Z,400.00
2023-02-27T10:49:18.849Z,400.00
2023-02-27T10:50:16.484Z,400.00
2023-02-27T10:51:16.475Z,400.00
2023-02-27T10:52:16.467Z,400.00
2023-02-27T10:53:16.491Z,400.00
2023-02-27T10:54:16.791Z,400.00
2023-02-27T10:55:16.431Z,400.00
2023-02-27T10:56:16.437Z,400.00
2023-02-27T10:57:16.793Z,400.00
2023-02-27T10:58:16.408Z,400.00
2023-02-27T10:59:16.788Z,400.00
2023-02-27T11:00:16.452Z,400.00
2023-02-27T11:01:16.408Z,400.00
2023-02-27T11:02:16.378Z,400.00
2023-02-27T11:03:16.365Z,400.00
2023-02-27T11:04:16.815Z,400.00
2023-02-27T11:05:17.293Z,400.00
2023-02-27T11:06:16.338Z,400.00
2023-02-27T11:07:16.817Z,400.00
2023-02-27T11:09:16.817Z,400.00
2023-02-27T11:10:16.397Z,400.00
2023-02-27T11:11:16.289Z,400.00
2023-02-27T11:12:16.334Z,400.00
2023-02-27T11:13:16.274Z,400.00
2023-02-27T11:14:16.295Z,400.00
2023-02-27T11:15:16.258Z,400.00
2023-02-27T11:16:16.347Z,400.00
2023-02-27T11:17:16.234Z,400.00
2023-02-27T11:18:16.230Z,400.00
2023-02-27T11:19:16.297Z,400.00
2023-02-27T11:20:16.239Z,400.00
2023-02-27T11:21:16.325Z,400.00
2023-02-27T11:22:16.199Z,400.00
2023-02-27T11:23:16.185Z,400.00
2023-02-27T11:24:17.173Z,400.00
2023-02-27T11:25:16.197Z,400.00
2023-02-27T11:26:16.322Z,400.00
2023-02-27T11:27:16.160Z,400.00
2023-02-27T11:28:16.175Z,451.00
2023-02-27T11:29:16.199Z,498.00
2023-02-27T11:30:17.432Z,506.00
2023-02-27T11:31:16.212Z,510.00
2023-02-27T11:32:16.166Z,506.00
2023-02-27T11:33:16.305Z,500.00
2023-02-27T11:34:16.635Z,508.00
2023-02-27T11:35:16.308Z,506.00
2023-02-27T11:36:17.838Z,500.00
2023-02-27T11:37:16.503Z,503.00
2023-02-27T11:38:16.058Z,500.00
2023-02-27T11:39:16.049Z,504.00
2023-02-27T11:40:16.501Z,499.00
2023-02-27T11:41:16.066Z,491.00
2023-02-27T11:42:17.390Z,485.00
2023-02-27T11:43:16.322Z,500.00
2023-02-27T11:44:16.011Z,502.00
2023-02-27T11:45:15.990Z,501.00
2023-02-27T11:46:43.506Z,501.00
2023-02-27T11:47:16.038Z,502.00
2023-02-27T11:48:16.316Z,502.00
2023-02-27T11:49:15.953Z,501.00
2023-02-27T11:50:15.944Z,494.00
2023-02-27T11:51:15.942Z,491.00
2023-02-27T11:52:15.934Z,500.00
2023-02-27T11:53:16.328Z,504.00
2023-02-27T11:54:15.993Z,505.00
2023-02-27T11:55:15.952Z,504.00
2023-02-27T11:56:16.314Z,500.00
2023-02-27T11:57:15.916Z,504.00
2023-02-27T11:58:16.310Z,503.00
2023-02-27T11:59:15.874Z,504.00
2023-02-27T12:00:15.861Z,503.00
2023-02-27T12:01:16.841Z,509.00
2023-02-27T12:02:16.335Z,512.00
2023-02-27T12:03:15.863Z,506.00
2023-02-27T12:04:16.922Z,500.00
2023-02-27T12:05:15.818Z,501.00
2023-02-27T12:06:15.819Z,502.00
2023-02-27T12:07:15.798Z,502.00
2023-02-27T12:08:15.846Z,501.00
2023-02-27T12:09:15.786Z,506.00
2023-02-27T12:10:15.780Z,504.00
2023-02-27T12:11:15.831Z,500.00
2023-02-27T12:12:15.763Z,505.00
2023-02-27T12:13:15.834Z,510.00
2023-02-27T12:14:15.748Z,504.00
2023-02-27T12:15:15.733Z,500.00
2023-02-27T12:16:15.956Z,500.00
2023-02-27T12:17:15.712Z,500.00
2023-02-27T12:18:15.716Z,505.00
2023-02-27T12:19:15.699Z,503.00
2023-02-27T12:20:15.683Z,500.00
2023-02-27T12:21:15.844Z,508.00
2023-02-27T12:22:15.667Z,505.00
2023-02-27T12:23:15.660Z,500.00
2023-02-27T12:24:15.652Z,500.00
2023-02-27T12:25:15.661Z,504.00
2023-02-27T12:26:15.829Z,511.00
2023-02-27T12:27:15.626Z,508.00
2023-02-27T12:28:15.616Z,501.00
2023-02-27T12:29:15.649Z,503.00
2023-02-27T12:30:15.598Z,500.00
2023-02-27T12:31:15.837Z,514.00
2023-02-27T12:32:15.658Z,510.00
2023-02-27T12:33:15.570Z,520.00
2023-02-27T12:34:15.836Z,522.00
2023-02-27T12:35:15.552Z,516.00
2023-02-27T12:36:15.610Z,514.00
2023-02-27T12:37:15.834Z,511.00
2023-02-27T12:38:15.526Z,513.00
2023-02-27T12:39:15.517Z,510.00
2023-02-27T12:40:16.115Z,511.00
2023-02-27T12:41:16.049Z,518.00
2023-02-27T12:42:15.829Z,519.00
2023-02-27T12:43:15.495Z,523.00
2023-02-27T12:44:15.828Z,525.00
2023-02-27T12:45:15.496Z,525.00
2023-02-27T12:46:15.498Z,518.00
2023-02-27T12:47:16.340Z,521.00
2023-02-27T12:48:15.433Z,510.00
2023-02-27T12:49:15.443Z,500.00
2023-02-27T12:50:15.416Z,511.00
2023-02-27T12:51:15.411Z,509.00
2023-02-27T12:52:15.835Z,500.00
2023-02-27T12:53:15.393Z,505.00
2023-02-27T12:54:15.414Z,507.00
2023-02-27T12:55:15.369Z,511.00
2023-02-27T12:56:15.369Z,513.00
2023-02-27T12:57:15.832Z,526.00
2023-02-27T12:58:15.804Z,513.00
2023-02-27T12:59:15.554Z,523.00
2023-02-27T13:00:15.903Z,524.00
2023-02-27T13:01:15.940Z,522.00
2023-02-27T13:02:48.041Z,514.00
2023-02-27T13:04:16.606Z,516.00
2023-02-27T13:05:15.897Z,521.00
2023-02-27T13:06:15.812Z,503.00
2023-02-27T13:07:15.497Z,495.00
2023-02-27T13:08:15.532Z,500.00
2023-02-27T13:09:15.448Z,504.00
2023-02-27T13:10:15.388Z,505.00
2023-02-27T13:11:15.257Z,521.00
2023-02-27T13:12:15.261Z,534.00
2023-02-27T13:13:15.368Z,547.00
2023-02-27T13:14:15.254Z,559.00
2023-02-27T13:15:15.218Z,562.00
2023-02-27T13:16:15.247Z,580.00
2023-02-27T13:17:15.548Z,586.00
2023-02-27T13:18:15.371Z,602.00
2023-02-27T13:19:15.198Z,603.00
2023-02-27T13:20:15.474Z,590.00
2023-02-27T13:21:15.183Z,589.00
2023-02-27T13:22:15.177Z,576.00
2023-02-27T13:23:15.382Z,573.00
2023-02-27T13:24:15.183Z,593.00
2023-02-27T13:25:15.290Z,592.00
2023-02-27T13:26:15.244Z,584.00
2023-02-27T13:27:15.284Z,584.00
2023-02-27T13:28:15.481Z,591.00
2023-02-27T13:29:15.146Z,590.00
2023-02-27T13:30:15.227Z,591.00
2023-02-27T13:31:15.203Z,579.00
2023-02-27T13:32:15.332Z,573.00
2023-02-27T13:33:16.497Z,567.00
2023-02-27T13:34:15.531Z,578.00
2023-02-27T13:35:15.456Z,568.00
2023-02-27T13:36:15.233Z,577.00
2023-02-27T13:37:15.371Z,572.00
2023-02-27T13:38:15.592Z,567.00
2023-02-27T13:39:15.886Z,562.00
2023-02-27T13:40:15.613Z,565.00
2023-02-27T13:44:15.417Z,554.00
2023-02-27T13:45:15.323Z,557.00
2023-02-27T13:46:15.192Z,564.00
2023-02-27T13:47:15.490Z,565.00
2023-02-27T13:49:28.156Z,562.00
2023-02-27T13:50:15.354Z,563.00
2023-02-27T13:51:15.947Z,566.00
2023-02-27T13:52:15.327Z,571.00
2023-02-27T13:53:15.416Z,582.00
2023-02-27T13:54:15.234Z,572.00
2023-02-27T13:55:15.502Z,589.00
2023-02-27T13:56:15.126Z,593.00
2023-02-27T13:58:15.257Z,584.00
2023-02-27T13:59:15.315Z,582.00
2023-02-27T14:00:15.160Z,591.00
2023-02-27T14:01:15.319Z,589.00
2023-02-27T14:02:15.355Z,581.00
2023-02-27T14:03:15.255Z,560.00
2023-02-27T14:04:15.295Z,570.00
2023-02-27T14:07:15.298Z,575.00
2023-02-27T14:08:15.255Z,581.00
2023-02-27T14:11:14.865Z,590.00
2023-02-27T14:12:15.268Z,579.00
2023-02-27T14:13:15.259Z,572.00
2023-02-27T14:15:15.163Z,582.00
2023-02-27T14:18:28.845Z,575.00
2023-02-27T14:19:15.037Z,575.00
2023-02-27T14:21:15.011Z,548.00
2023-02-27T14:22:15.197Z,543.00
2023-02-27T14:23:15.102Z,564.00
2023-02-27T14:24:15.055Z,571.00
2023-02-27T14:26:15.051Z,581.00
2023-02-27T14:27:15.356Z,500.00
2023-02-27T14:28:15.729Z,400.00
2023-02-27T14:30:15.189Z,400.00
2023-02-27T14:32:15.097Z,500.00
2023-02-27T14:33:16.709Z,576.00
2023-02-27T14:35:15.116Z,589.00
2023-02-27T14:36:15.229Z,610.00
2023-02-27T14:37:15.443Z,652.00
2023-02-27T14:38:15.068Z,808.00
2023-02-27T14:39:15.120Z,841.00
2023-02-27T14:40:21.299Z,894.00
2023-02-27T14:41:15.969Z,895.00
2023-02-27T14:42:14.882Z,897.00
2023-02-27T14:43:14.922Z,916.00
2023-02-27T14:44:15.032Z,1018.00
2023-02-27T14:45:15.099Z,1374.00
2023-02-27T14:46:15.142Z,1981.00
2023-02-27T14:47:15.028Z,2308.00
2023-02-27T14:52:14.897Z,2949.00
2023-02-27T15:03:14.946Z,2498.00
2023-02-27T15:09:14.812Z,2248.00
2023-02-27T15:11:14.613Z,2210.00
2023-02-27T15:12:14.734Z,2163.00
2023-02-27T15:32:15.454Z,1647.00
2023-02-27T15:33:15.040Z,1713.00
2023-02-27T15:38:15.085Z,1557.00
2023-02-27T15:43:15.209Z,1388.00
2023-02-27T20:02:11.583Z,1436.00
2023-02-27T20:03:11.579Z,1444.00
2023-02-27T20:11:11.503Z,1443.00
2023-02-27T20:21:11.430Z,1420.00
2023-02-27T20:23:11.392Z,1422.00
2023-02-27T20:24:11.389Z,1427.00
2023-02-27T20:27:11.358Z,1432.00
2023-02-27T20:41:11.247Z,1399.00
2023-02-27T20:52:11.141Z,1395.00
2023-02-27T20:53:11.126Z,1384.00
2023-02-27T21:00:11.064Z,1379.00
2023-02-27T21:05:11.072Z,1382.00
2023-02-27T21:07:11.006Z,1369.00
2023-02-27T21:11:10.966Z,1362.00
2023-02-27T21:13:10.951Z,1361.00
2023-02-27T21:16:10.996Z,1357.00
2023-02-27T21:33:10.790Z,1330.00
2023-02-27T21:35:10.750Z,1344.00
2023-02-27T21:40:10.709Z,1332.00
2023-02-27T21:45:10.655Z,1330.00
2023-02-27T21:46:10.747Z,1325.00
2023-02-27T21:49:10.650Z,1326.00
2023-02-27T21:56:10.558Z,1324.00
2023-02-27T22:01:10.603Z,1322.00
2023-02-27T22:03:10.497Z,1308.00
2023-02-27T22:29:10.259Z,1291.00
2023-02-27T22:30:10.251Z,1294.00
2023-02-27T22:36:10.203Z,1286.00
2023-02-27T22:52:10.056Z,1267.00
2023-02-27T23:10:09.894Z,1266.00
2023-02-27T23:30:09.712Z,1239.00
2023-02-27T23:35:09.667Z,1238.00
2023-02-27T23:39:09.639Z,1238.00
2023-02-27T23:40:09.622Z,1235.00
2023-02-27T23:41:09.667Z,1227.00
2023-02-27T23:42:09.614Z,1226.00
2023-02-27T23:48:09.551Z,1224.00
2023-02-27T23:57:09.495Z,1214.00
